Time;durP1;ratioP1;P1;durP2;ratioP2;P2;SDS_P1;SDS_P2;PMS_P1;PMS_P2;Temp;Humidity;BMP_temperature;BMP_pressure;BME280_temperature;BME280_humidity;BME280_pressure;Samples;Min_cycle;Max_cycle;Signal;HPM_P1;HPM_P2
2021/12/03 00:00:31;;;;;;;4.30;2.83;;;2.10;99.90;;;;;;5036610;28;20211;-53
2021/12/03 00:02:58;;;;;;;3.20;2.57;;;2.10;99.90;;;;;;5026276;28;20379;-51
2021/12/03 00:05:25;;;;;;;6.40;3.60;;;2.00;99.90;;;;;;5037430;28;20303;-52
2021/12/03 00:07:52;;;;;;;5.80;3.33;;;1.90;99.90;;;;;;5015992;28;20359;-52
2021/12/03 00:10:24;;;;;;;6.00;3.37;;;1.90;99.90;;;;;;5038422;28;20290;-54
2021/12/03 00:12:53;;;;;;;5.77;3.03;;;1.90;99.90;;;;;;5020491;28;20305;-53
2021/12/03 00:15:23;;;;;;;7.17;3.50;;;1.90;99.90;;;;;;5036986;28;20318;-53
2021/12/03 00:17:50;;;;;;;8.17;4.13;;;1.90;99.90;;;;;;5037509;28;20280;-53
2021/12/03 00:20:17;;;;;;;7.03;3.97;;;1.90;99.90;;;;;;5037954;28;20201;-52
2021/12/03 00:22:48;;;;;;;8.67;4.10;;;1.90;99.90;;;;;;5021258;28;20201;-53
2021/12/03 00:25:15;;;;;;;7.83;4.07;;;1.90;99.90;;;;;;5038865;28;20770;-54
2021/12/03 00:27:43;;;;;;;6.17;4.20;;;2.00;99.90;;;;;;5037506;28;20284;-54
2021/12/03 00:30:12;;;;;;;6.60;4.67;;;1.90;99.90;;;;;;5037668;28;20213;-54
2021/12/03 00:32:40;;;;;;;6.90;4.50;;;1.90;99.90;;;;;;5036817;28;20246;-53
2021/12/03 00:35:09;;;;;;;6.83;4.73;;;2.00;99.90;;;;;;5039881;28;20282;-54
2021/12/03 00:37:38;;;;;;;7.57;4.70;;;1.90;99.90;;;;;;5039029;28;20281;-52
2021/12/03 00:40:14;;;;;;;9.53;4.57;;;1.90;99.90;;;;;;5038458;28;20337;-52
2021/12/03 00:42:41;;;;;;;8.87;4.57;;;1.90;99.90;;;;;;5037617;28;20621;-52
2021/12/03 00:45:11;;;;;;;11.03;4.63;;;1.80;99.90;;;;;;5036929;28;20698;-52
2021/12/03 00:47:39;;;;;;;6.03;4.97;;;1.90;99.90;;;;;;5037472;28;20659;-54
2021/12/03 00:50:09;;;;;;;7.90;4.97;;;1.90;99.90;;;;;;5036988;28;20308;-52
2021/12/03 00:52:36;;;;;;;5.93;4.73;;;1.90;99.90;;;;;;5038507;28;20341;-52
2021/12/03 00:55:04;;;;;;;7.20;4.27;;;1.90;99.90;;;;;;5039915;28;21791;-53
2021/12/03 00:57:31;;;;;;;8.63;5.10;;;1.90;99.90;;;;;;5037887;28;20255;-52
2021/12/03 00:59:58;;;;;;;9.73;4.37;;;2.00;99.90;;;;;;5036755;28;20207;-52
2021/12/03 01:02:25;;;;;;;10.23;4.43;;;2.00;99.90;;;;;;5037134;28;20902;-51
2021/12/03 01:04:53;;;;;;;8.13;4.90;;;2.00;99.90;;;;;;5037454;28;20204;-52
2021/12/03 01:07:20;;;;;;;7.10;4.57;;;2.00;99.90;;;;;;5035428;28;20589;-51
2021/12/03 01:09:47;;;;;;;11.40;4.67;;;2.00;99.90;;;;;;5037809;28;20226;-53
2021/12/03 01:12:14;;;;;;;9.10;4.53;;;1.90;99.90;;;;;;5035604;28;20300;-52
2021/12/03 01:14:42;;;;;;;6.87;4.80;;;1.90;99.90;;;;;;5035752;28;20253;-52
2021/12/03 01:17:09;;;;;;;12.00;5.30;;;1.80;99.90;;;;;;5032801;28;20819;-50
2021/12/03 01:19:36;;;;;;;8.60;4.70;;;1.80;99.90;;;;;;5020213;28;20277;-54
2021/12/03 01:22:04;;;;;;;7.80;4.93;;;1.80;99.90;;;;;;5037043;28;20815;-51
2021/12/03 01:24:31;;;;;;;7.17;4.60;;;1.80;99.90;;;;;;5038266;28;20197;-52
2021/12/03 01:26:58;;;;;;;7.07;5.00;;;1.90;99.90;;;;;;5036594;28;20231;-53
2021/12/03 01:29:25;;;;;;;9.17;4.77;;;1.80;99.90;;;;;;5038019;28;20201;-52
2021/12/03 01:31:54;;;;;;;10.73;5.10;;;1.80;99.90;;;;;;5034232;28;20530;-54
2021/12/03 01:34:21;;;;;;;8.60;5.63;;;1.80;99.90;;;;;;5039793;28;20192;-53
2021/12/03 01:36:48;;;;;;;11.93;5.40;;;1.80;99.90;;;;;;5041218;28;20267;-52
2021/12/03 01:39:16;;;;;;;8.97;5.70;;;1.80;99.90;;;;;;5041130;28;20613;-53
2021/12/03 01:41:44;;;;;;;9.73;5.43;;;1.80;99.90;;;;;;5041345;28;20306;-54
2021/12/03 01:44:11;;;;;;;11.13;5.37;;;1.80;99.90;;;;;;5040526;28;20247;-51
2021/12/03 01:46:38;;;;;;;9.17;5.60;;;1.70;99.90;;;;;;5037126;28;20267;-54
2021/12/03 01:49:09;;;;;;;9.33;5.83;;;1.70;99.90;;;;;;5040840;28;20281;-53
2021/12/03 01:51:36;;;;;;;10.73;6.10;;;1.80;99.90;;;;;;5042287;28;20248;-53
2021/12/03 01:54:03;;;;;;;8.63;6.30;;;1.70;99.90;;;;;;5041052;28;20255;-52
2021/12/03 01:56:30;;;;;;;7.67;5.67;;;1.70;99.90;;;;;;5040127;28;20200;-52
2021/12/03 01:58:57;;;;;;;10.10;6.27;;;1.70;99.90;;;;;;5041253;28;20233;-54
2021/12/03 02:01:27;;;;;;;13.97;6.33;;;1.70;99.90;;;;;;5041061;28;20219;-53
2021/12/03 02:03:58;;;;;;;10.07;6.93;;;1.60;99.90;;;;;;5040467;28;20204;-55
2021/12/03 02:06:25;;;;;;;10.43;6.57;;;1.70;99.90;;;;;;5041669;28;20672;-53
2021/12/03 02:08:53;;;;;;;12.20;6.47;;;1.70;99.90;;;;;;5040040;28;20205;-54
2021/12/03 02:11:21;;;;;;;8.07;5.90;;;1.60;99.90;;;;;;5040968;28;20260;-53
2021/12/03 02:13:48;;;;;;;11.73;7.40;;;1.70;99.90;;;;;;5039600;28;20315;-51
2021/12/03 02:16:18;;;;;;;10.03;7.73;;;1.70;99.90;;;;;;5038925;28;20691;-53
2021/12/03 02:18:45;;;;;;;12.37;7.70;;;1.70;99.90;;;;;;5038151;28;20679;-53
2021/12/03 02:21:13;;;;;;;12.60;7.60;;;1.80;99.90;;;;;;5040322;28;20205;-53
2021/12/03 02:23:41;;;;;;;13.83;7.33;;;1.70;99.90;;;;;;5039393;28;20287;-52
2021/12/03 02:26:09;;;;;;;13.03;8.60;;;1.70;99.90;;;;;;5037724;28;20285;-52
2021/12/03 02:28:44;;;;;;;12.03;7.50;;;1.70;99.90;;;;;;5038540;28;20242;-53
2021/12/03 02:31:13;;;;;;;17.47;8.57;;;1.80;99.90;;;;;;5039116;28;20219;-53
2021/12/03 02:33:40;;;;;;;13.30;7.60;;;1.70;99.90;;;;;;5039598;28;20196;-54
2021/12/03 02:36:08;;;;;;;12.23;8.37;;;1.70;99.90;;;;;;5041731;28;20281;-53
2021/12/03 02:38:35;;;;;;;13.20;9.30;;;1.70;99.90;;;;;;5038164;28;20287;-52
2021/12/03 02:41:02;;;;;;;13.57;8.37;;;1.60;99.90;;;;;;5039897;28;20286;-53
2021/12/03 02:43:29;;;;;;;15.87;9.43;;;1.70;99.90;;;;;;5037807;28;20792;-53
2021/12/03 02:45:57;;;;;;;15.20;9.43;;;1.70;99.90;;;;;;5026270;28;21489;-51
2021/12/03 02:48:25;;;;;;;13.47;9.23;;;1.60;99.90;;;;;;5038631;28;20353;-55
2021/12/03 02:50:54;;;;;;;20.77;9.80;;;1.70;99.90;;;;;;5038953;28;20223;-53
2021/12/03 02:53:21;;;;;;;19.93;10.10;;;1.70;99.90;;;;;;5040744;28;20215;-53
2021/12/03 02:55:49;;;;;;;15.90;10.80;;;1.70;99.90;;;;;;5040655;28;20200;-53
2021/12/03 02:58:17;;;;;;;20.23;12.43;;;1.60;99.90;;;;;;5039277;28;20232;-52
2021/12/03 03:00:46;;;;;;;22.43;13.47;;;1.70;99.90;;;;;;5039916;28;20210;-54
2021/12/03 03:03:13;;;;;;;23.17;14.60;;;1.70;99.90;;;;;;5040972;28;20214;-52
2021/12/03 03:05:44;;;;;;;28.13;14.67;;;1.70;99.90;;;;;;5035461;28;20208;-54
2021/12/03 03:08:11;;;;;;;29.83;15.73;;;1.70;99.90;;;;;;5040404;28;20261;-52
2021/12/03 03:10:41;;;;;;;31.47;16.30;;;1.70;99.90;;;;;;5021522;28;20262;-54
2021/12/03 03:13:08;;;;;;;30.30;15.50;;;1.70;99.90;;;;;;5037990;28;20228;-52
2021/12/03 03:15:38;;;;;;;33.27;16.57;;;1.60;99.90;;;;;;5037563;28;20278;-53
2021/12/03 03:18:18;;;;;;;32.67;17.97;;;1.70;99.90;;;;;;5037391;28;20206;-54
2021/12/03 03:20:46;;;;;;;32.33;17.73;;;1.70;99.90;;;;;;5038398;28;20187;-53
2021/12/03 03:23:15;;;;;;;31.77;17.60;;;1.70;99.90;;;;;;5037751;28;20205;-52
2021/12/03 03:25:44;;;;;;;36.17;19.03;;;1.70;99.90;;;;;;5038969;28;20231;-54
2021/12/03 03:28:12;;;;;;;44.53;19.77;;;1.70;99.90;;;;;;5035696;28;21003;-53
2021/12/03 03:30:41;;;;;;;48.23;21.33;;;1.60;99.90;;;;;;5037610;28;20247;-54
2021/12/03 03:33:09;;;;;;;50.10;22.93;;;1.70;99.90;;;;;;5038223;28;20724;-52
2021/12/03 03:35:36;;;;;;;49.37;21.90;;;1.70;99.90;;;;;;5038601;28;20204;-54
2021/12/03 03:38:03;;;;;;;54.37;23.53;;;1.70;99.90;;;;;;5038364;28;20569;-53
2021/12/03 03:40:30;;;;;;;50.50;22.07;;;1.70;99.90;;;;;;5037573;28;20256;-54
2021/12/03 03:42:58;;;;;;;47.50;21.27;;;1.80;99.90;;;;;;5038703;28;20551;-53
2021/12/03 03:45:26;;;;;;;46.97;23.30;;;1.70;99.90;;;;;;5036944;28;20319;-53
2021/12/03 03:47:54;;;;;;;46.67;22.13;;;1.70;99.90;;;;;;5037001;28;20645;-55
2021/12/03 03:50:21;;;;;;;41.17;21.30;;;1.70;99.90;;;;;;5036777;28;20213;-53
2021/12/03 03:52:50;;;;;;;43.20;20.30;;;1.70;99.90;;;;;;5038428;28;20228;-53
2021/12/03 03:55:18;;;;;;;45.00;20.63;;;1.70;99.90;;;;;;5038725;28;20265;-52
2021/12/03 03:57:46;;;;;;;40.50;18.57;;;1.70;99.90;;;;;;5025690;28;20263;-53
2021/12/03 04:00:18;;;;;;;35.60;17.77;;;1.80;99.90;;;;;;5037038;28;21464;-55
2021/12/03 04:02:45;;;;;;;38.17;17.47;;;1.90;99.90;;;;;;5037851;28;20192;-54
2021/12/03 04:05:13;;;;;;;40.23;18.87;;;1.80;99.90;;;;;;5037405;28;20666;-53
2021/12/03 04:07:40;;;;;;;41.43;17.77;;;1.90;99.90;;;;;;5037243;28;20242;-53
2021/12/03 04:10:08;;;;;;;38.07;18.00;;;1.90;99.90;;;;;;5038367;28;20223;-54
2021/12/03 04:12:36;;;;;;;32.57;17.50;;;1.90;99.90;;;;;;5038167;28;20655;-52
2021/12/03 04:15:04;;;;;;;37.60;17.53;;;1.90;99.90;;;;;;5036106;28;20636;-52
2021/12/03 04:17:31;;;;;;;36.83;16.33;;;1.90;99.90;;;;;;5037377;28;20254;-53
2021/12/03 04:19:58;;;;;;;34.87;17.57;;;1.90;99.90;;;;;;5037733;28;20200;-54
2021/12/03 04:22:25;;;;;;;41.10;17.23;;;1.90;99.90;;;;;;5038645;28;20578;-53
2021/12/03 04:24:54;;;;;;;42.40;18.70;;;2.00;99.90;;;;;;5019885;28;20218;-53
2021/12/03 04:27:27;;;;;;;34.60;17.33;;;2.00;99.90;;;;;;5037252;28;20279;-54
2021/12/03 04:29:54;;;;;;;35.93;17.53;;;2.00;99.90;;;;;;5036419;28;20227;-54
2021/12/03 04:32:23;;;;;;;39.30;18.17;;;2.00;99.90;;;;;;5036424;28;20215;-53
2021/12/03 04:34:50;;;;;;;41.13;18.73;;;2.10;99.90;;;;;;5037866;28;20607;-53
2021/12/03 04:37:17;;;;;;;39.13;18.30;;;2.10;99.90;;;;;;5037644;28;20210;-53
2021/12/03 04:39:44;;;;;;;42.43;19.37;;;2.00;99.90;;;;;;5040067;28;20231;-53
2021/12/03 04:42:11;;;;;;;42.77;20.33;;;2.00;99.90;;;;;;5036959;28;20304;-52
2021/12/03 04:44:38;;;;;;;48.40;21.47;;;2.10;99.90;;;;;;5037848;28;20216;-53
2021/12/03 04:47:06;;;;;;;45.90;22.47;;;2.00;99.90;;;;;;5035583;28;20248;-51
2021/12/03 04:49:33;;;;;;;46.67;21.97;;;2.00;99.90;;;;;;5037318;28;20216;-55
2021/12/03 04:52:00;;;;;;;47.50;21.63;;;2.10;99.90;;;;;;5038123;28;20239;-51
2021/12/03 04:54:27;;;;;;;43.27;22.53;;;2.10;99.90;;;;;;5037628;28;20288;-54
2021/12/03 04:56:55;;;;;;;46.73;21.77;;;2.20;99.90;;;;;;5036051;28;20196;-53
2021/12/03 04:59:24;;;;;;;49.03;23.07;;;2.20;99.90;;;;;;5034344;28;20295;-52
2021/12/03 05:01:55;;;;;;;52.90;22.67;;;2.20;99.90;;;;;;5036055;28;20205;-54
2021/12/03 05:04:24;;;;;;;49.17;23.30;;;2.30;99.90;;;;;;5035795;28;20210;-53
2021/12/03 05:07:04;;;;;;;45.07;22.77;;;2.30;99.90;;;;;;5038274;28;20207;-54
2021/12/03 05:09:31;;;;;;;49.30;23.57;;;2.20;99.90;;;;;;5036945;28;20205;-54
2021/12/03 05:11:59;;;;;;;46.57;23.00;;;2.30;99.90;;;;;;5036826;28;20267;-52
2021/12/03 05:14:26;;;;;;;48.97;22.63;;;2.30;99.90;;;;;;5035547;28;20243;-54
2021/12/03 05:16:53;;;;;;;41.87;20.03;;;2.30;99.90;;;;;;5036306;28;20207;-53
2021/12/03 05:19:21;;;;;;;43.23;21.10;;;2.30;99.90;;;;;;5020149;28;20208;-53
2021/12/03 05:21:48;;;;;;;37.50;20.23;;;2.30;99.90;;;;;;5037123;28;20287;-53
2021/12/03 05:24:15;;;;;;;40.77;18.57;;;2.30;99.90;;;;;;5037036;28;20254;-53
2021/12/03 05:26:44;;;;;;;38.27;19.67;;;2.30;99.90;;;;;;5036600;28;20250;-54
2021/12/03 05:29:12;;;;;;;40.80;19.10;;;2.30;99.90;;;;;;5026069;28;20719;-53
2021/12/03 05:31:39;;;;;;;40.83;18.77;;;2.30;99.90;;;;;;5035348;28;20301;-52
2021/12/03 05:34:25;;;;;;;31.20;18.37;;;2.30;99.90;;;;;;5036411;28;20216;-54
2021/12/03 05:36:52;;;;;;;37.70;17.67;;;2.40;99.90;;;;;;5037771;28;20226;-54
2021/12/03 05:39:19;;;;;;;36.03;17.07;;;2.40;99.90;;;;;;5038430;28;20257;-53
2021/12/03 05:41:46;;;;;;;31.67;16.40;;;2.40;99.90;;;;;;5036384;28;20243;-52
2021/12/03 05:44:13;;;;;;;35.40;14.90;;;2.40;99.90;;;;;;5035899;28;20248;-53
2021/12/03 05:46:40;;;;;;;27.57;14.70;;;2.40;99.90;;;;;;5015516;28;20240;-54
2021/12/03 05:49:08;;;;;;;31.67;13.20;;;2.30;99.90;;;;;;5017104;28;20552;-53
2021/12/03 05:51:35;;;;;;;20.53;10.30;;;2.40;99.90;;;;;;5017896;28;20580;-53
2021/12/03 05:54:02;;;;;;;27.17;11.93;;;2.40;99.90;;;;;;5017754;28;20237;-53
2021/12/03 05:56:29;;;;;;;19.87;10.30;;;2.40;99.90;;;;;;5017805;28;20228;-54
2021/12/03 05:58:59;;;;;;;21.73;10.07;;;2.40;99.90;;;;;;5015719;28;20209;-52
2021/12/03 06:01:26;;;;;;;18.23;9.27;;;2.50;99.90;;;;;;5017639;28;20204;-53
2021/12/03 06:03:55;;;;;;;29.97;9.77;;;2.40;99.90;;;;;;5016983;28;20208;-53
2021/12/03 06:06:22;;;;;;;17.83;8.00;;;2.50;99.90;;;;;;5016429;28;20259;-54
2021/12/03 06:08:49;;;;;;;21.57;8.40;;;2.50;99.90;;;;;;5016356;28;20236;-53
2021/12/03 06:11:16;;;;;;;18.50;8.00;;;2.50;99.90;;;;;;5017525;28;21001;-53
2021/12/03 06:13:43;;;;;;;18.90;7.07;;;2.50;99.90;;;;;;5016648;28;20279;-52
2021/12/03 06:16:12;;;;;;;17.40;6.53;;;2.50;99.90;;;;;;5016401;28;20211;-54
2021/12/03 06:18:40;;;;;;;16.57;6.97;;;2.50;99.90;;;;;;5016940;28;20219;-52
2021/12/03 06:21:09;;;;;;;17.87;7.20;;;2.60;99.90;;;;;;5020958;28;20284;-52
2021/12/03 06:23:36;;;;;;;11.30;5.77;;;2.50;99.90;;;;;;5020270;28;20232;-53
2021/12/03 06:26:05;;;;;;;16.93;6.13;;;2.50;99.90;;;;;;5018729;28;20205;-55
2021/12/03 06:28:33;;;;;;;18.53;6.87;;;2.50;99.90;;;;;;5017489;28;20698;-54
2021/12/03 06:31:01;;;;;;;14.60;6.03;;;2.50;99.90;;;;;;5020483;28;20693;-53
2021/12/03 06:33:28;;;;;;;13.27;5.90;;;2.50;99.90;;;;;;5020112;28;20303;-53
2021/12/03 06:35:54;;;;;;;17.40;6.13;;;2.50;99.90;;;;;;5009575;28;20228;-54
2021/12/03 06:38:22;;;;;;;14.13;5.27;;;2.50;99.90;;;;;;5017509;28;20204;-53
2021/12/03 06:40:51;;;;;;;10.07;5.53;;;2.50;99.90;;;;;;5015655;28;20312;-53
2021/12/03 06:43:18;;;;;;;17.47;5.30;;;2.50;99.90;;;;;;5014823;28;20311;-52
2021/12/03 06:45:46;;;;;;;15.50;5.43;;;2.50;99.90;;;;;;5018403;28;20239;-53
2021/12/03 06:48:14;;;;;;;16.73;5.30;;;2.50;99.90;;;;;;5039298;28;20777;-53
2021/12/03 06:50:43;;;;;;;13.43;5.40;;;2.50;99.90;;;;;;5037331;28;20303;-53
2021/12/03 06:53:13;;;;;;;11.63;4.60;;;2.50;99.90;;;;;;5022929;28;20251;-52
2021/12/03 06:55:57;;;;;;;12.90;5.23;;;2.50;99.90;;;;;;5038910;28;20205;-55
2021/12/03 06:58:24;;;;;;;16.60;4.87;;;2.50;99.90;;;;;;5034192;28;20207;-54
2021/12/03 07:00:54;;;;;;;11.97;4.17;;;2.60;99.90;;;;;;5034499;28;20621;-53
2021/12/03 07:03:21;;;;;;;13.17;5.13;;;2.50;99.90;;;;;;5036450;28;20208;-54
2021/12/03 07:05:49;;;;;;;11.63;4.70;;;2.50;99.90;;;;;;5036468;28;20206;-54
2021/12/03 07:08:16;;;;;;;13.93;4.33;;;2.50;99.90;;;;;;5034208;28;20673;-53
2021/12/03 07:10:43;;;;;;;16.80;4.87;;;2.60;99.90;;;;;;5040081;28;20212;-54
2021/12/03 07:13:10;;;;;;;10.50;4.30;;;2.60;99.90;;;;;;5015043;28;20275;-53
2021/12/03 07:15:37;;;;;;;12.83;5.50;;;2.50;99.90;;;;;;5019452;28;20619;-53
2021/12/03 07:18:04;;;;;;;12.20;4.43;;;2.60;99.90;;;;;;5029736;28;20219;-55
2021/12/03 07:20:31;;;;;;;9.87;4.23;;;2.50;99.90;;;;;;5034127;28;20299;-51
2021/12/03 07:22:57;;;;;;;15.30;4.57;;;2.50;99.90;;;;;;5036623;28;20230;-52
2021/12/03 07:25:25;;;;;;;13.30;3.87;;;2.60;99.90;;;;;;5038033;28;20316;-55
2021/12/03 07:27:52;;;;;;;10.50;4.07;;;2.60;99.90;;;;;;5031511;28;20274;-53
2021/12/03 07:30:21;;;;;;;12.53;4.10;;;2.50;99.90;;;;;;5036833;28;20658;-53
2021/12/03 07:32:48;;;;;;;12.10;3.63;;;2.50;99.90;;;;;;5029486;28;21503;-53
2021/12/03 07:35:15;;;;;;;10.63;4.07;;;2.60;99.90;;;;;;5033853;28;20224;-52
2021/12/03 07:37:43;;;;;;;11.70;3.67;;;2.60;99.90;;;;;;5037117;28;20200;-54
2021/12/03 07:40:12;;;;;;;10.97;3.83;;;2.50;99.90;;;;;;5037625;28;20693;-54
2021/12/03 07:42:39;;;;;;;7.53;4.27;;;2.50;99.90;;;;;;5039254;28;20239;-51
2021/12/03 07:45:08;;;;;;;6.87;3.13;;;2.50;99.90;;;;;;5040419;28;20274;-53
2021/12/03 07:47:37;;;;;;;7.93;3.60;;;2.50;99.90;;;;;;5036747;28;20309;-54
2021/12/03 07:50:06;;;;;;;8.53;3.97;;;2.60;99.90;;;;;;5038958;28;20621;-52
2021/12/03 07:52:34;;;;;;;11.87;3.90;;;2.60;99.90;;;;;;5040077;28;20243;-53
2021/12/03 07:55:02;;;;;;;9.47;3.87;;;2.50;99.90;;;;;;5039348;28;20286;-53
2021/12/03 07:57:29;;;;;;;9.33;4.03;;;2.60;99.90;;;;;;5038146;28;20237;-54
2021/12/03 07:59:56;;;;;;;13.00;4.20;;;2.60;99.90;;;;;;5039007;28;20196;-52
2021/12/03 08:02:24;;;;;;;11.27;3.67;;;2.50;99.90;;;;;;5039669;28;20295;-54
2021/12/03 08:04:51;;;;;;;10.90;3.67;;;2.50;99.90;;;;;;5038248;28;20251;-53
2021/12/03 08:07:18;;;;;;;13.13;3.73;;;2.50;99.90;;;;;;5020823;28;20212;-53
2021/12/03 08:09:45;;;;;;;10.77;3.80;;;2.50;99.90;;;;;;5036935;28;20196;-54
2021/12/03 08:12:12;;;;;;;8.87;3.47;;;2.50;99.90;;;;;;5036260;28;20248;-54
2021/12/03 08:14:39;;;;;;;9.60;3.50;;;2.60;99.90;;;;;;5039224;28;20628;-54
2021/12/03 08:17:06;;;;;;;7.33;3.20;;;2.60;99.90;;;;;;5037141;28;20946;-53
2021/12/03 08:19:34;;;;;;;9.63;3.17;;;2.60;99.90;;;;;;5039026;28;20227;-53
2021/12/03 08:22:00;;;;;;;9.90;3.13;;;2.70;99.90;;;;;;5038811;28;20303;-54
2021/12/03 08:24:27;;;;;;;10.40;2.30;;;2.70;99.90;;;;;;5039477;28;20201;-54
2021/12/03 08:26:54;;;;;;;8.67;2.87;;;2.70;99.90;;;;;;5038314;28;20273;-53
2021/12/03 08:29:21;;;;;;;13.20;4.13;;;2.80;99.90;;;;;;5037598;28;20222;-52
2021/12/03 08:31:48;;;;;;;10.83;3.37;;;2.80;99.90;;;;;;5037320;28;20617;-54
2021/12/03 08:34:15;;;;;;;8.07;2.60;;;2.80;99.90;;;;;;5037732;28;20200;-53
2021/12/03 08:36:42;;;;;;;8.80;3.20;;;2.80;99.90;;;;;;5039072;28;20262;-53
2021/12/03 08:39:09;;;;;;;16.57;3.70;;;2.90;99.90;;;;;;5034946;28;20702;-54
2021/12/03 08:41:36;;;;;;;9.90;3.47;;;2.90;99.90;;;;;;5038976;28;20204;-55
2021/12/03 08:44:04;;;;;;;10.83;3.60;;;2.90;99.90;;;;;;5036780;28;20695;-53
2021/12/03 08:46:40;;;;;;;15.60;4.70;;;2.90;99.90;;;;;;5037070;28;20263;-51
2021/12/03 08:56:56;;;;;;;12.33;3.10;;;3.10;99.90;;;;;;5036781;28;20210;-54
2021/12/03 08:59:23;;;;;;;11.80;3.03;;;3.00;99.90;;;;;;5037226;28;20329;-53
2021/12/03 09:01:50;;;;;;;13.23;3.17;;;3.10;99.90;;;;;;5034189;28;20695;-53
2021/12/03 09:04:17;;;;;;;8.27;2.80;;;3.20;99.90;;;;;;5037070;28;20256;-51
2021/12/03 09:06:44;;;;;;;10.40;3.10;;;3.10;99.90;;;;;;5038639;28;20216;-55
2021/12/03 09:09:11;;;;;;;6.80;2.37;;;3.00;99.90;;;;;;5034002;28;20771;-53
2021/12/03 09:11:38;;;;;;;10.80;4.43;;;3.00;99.90;;;;;;5035721;28;20205;-53
2021/12/03 09:14:15;;;;;;;6.23;2.97;;;3.00;99.90;;;;;;5031161;28;20216;-52
2021/12/03 09:16:45;;;;;;;9.13;2.97;;;3.10;99.90;;;;;;5036054;28;20363;-54
2021/12/03 09:19:24;;;;;;;11.90;3.03;;;3.10;99.90;;;;;;5036940;28;20662;-52
2021/12/03 09:21:51;;;;;;;8.17;3.70;;;3.10;99.90;;;;;;5035324;28;20231;-52
2021/12/03 09:24:22;;;;;;;13.53;3.50;;;3.10;99.90;;;;;;5036337;28;20204;-52
2021/12/03 09:26:49;;;;;;;7.83;2.77;;;3.10;99.90;;;;;;5037683;28;20232;-54
2021/12/03 09:29:23;;;;;;;15.00;2.93;;;3.10;99.90;;;;;;5037977;28;20318;-55
2021/12/03 09:31:50;;;;;;;5.60;2.33;;;3.20;99.90;;;;;;5026250;28;20263;-54
2021/12/03 09:34:19;;;;;;;8.07;2.47;;;3.10;99.90;;;;;;5034944;28;20251;-53
2021/12/03 09:36:46;;;;;;;11.53;3.07;;;3.10;99.90;;;;;;5028818;28;20211;-51
2021/12/03 09:39:20;;;;;;;9.80;3.17;;;3.10;99.90;;;;;;5033690;28;20248;-52
2021/12/03 09:41:52;;;;;;;8.70;3.27;;;3.10;99.90;;;;;;5034087;28;20274;-52
2021/12/03 09:44:20;;;;;;;9.20;3.07;;;3.10;99.90;;;;;;5025568;28;20656;-52
2021/12/03 09:46:49;;;;;;;7.20;2.93;;;3.20;99.90;;;;;;5033669;28;20260;-54
2021/12/03 09:57:14;;;;;;;6.33;3.10;;;3.10;99.90;;;;;;5037633;28;20644;-52
2021/12/03 10:18:50;;;;;;;5.93;3.20;;;3.40;99.90;;;;;;5037273;28;20203;-53
2021/12/03 10:30:16;;;;;;;10.10;3.93;;;3.40;99.90;;;;;;5039926;28;20231;-54
2021/12/03 10:52:33;;;;;;;7.97;3.30;;;3.60;99.90;;;;;;5036710;28;20326;-52
2021/12/03 11:03:23;;;;;;;7.80;3.57;;;3.80;99.90;;;;;;5037823;28;20260;-53
2021/12/03 11:15:29;;;;;;;10.47;3.60;;;3.90;99.90;;;;;;5036004;28;20342;-51
2021/12/03 11:39:09;;;;;;;13.47;3.73;;;4.20;99.90;;;;;;5036938;28;20611;-50
2021/12/03 11:50:08;;;;;;;8.83;3.53;;;4.40;99.90;;;;;;5034156;28;20207;-52
2021/12/03 13:18:09;;;;;;;4.90;2.37;;;5.00;99.90;;;;;;5010103;28;20279;-52
2021/12/03 13:21:11;;;;;;;4.57;2.10;;;4.90;99.90;;;;;;5035367;28;20237;-51
2021/12/03 13:58:07;;;;;;;5.43;2.67;;;4.30;99.90;;;;;;5036180;28;20192;-51
2021/12/03 14:03:24;;;;;;;5.30;2.23;;;4.20;99.90;;;;;;5036008;28;20253;-53
2021/12/03 14:44:51;;;;;;;3.23;2.57;;;4.20;99.90;;;;;;5039802;28;20200;-52
2021/12/03 14:47:42;;;;;;;2.67;2.27;;;4.20;99.90;;;;;;5034647;28;20286;-52
2021/12/03 14:55:49;;;;;;;3.23;2.50;;;4.20;99.90;;;;;;5038145;28;20291;-51
2021/12/03 14:58:20;;;;;;;4.73;2.20;;;4.20;99.90;;;;;;5035227;28;20708;-52
2021/12/03 15:06:56;;;;;;;3.90;2.70;;;4.00;99.90;;;;;;5040082;28;20660;-52
2021/12/03 15:25:32;;;;;;;3.83;2.53;;;4.00;99.90;;;;;;4974767;28;20202;-52
2021/12/03 16:08:14;;;;;;;3.50;2.67;;;4.10;99.90;;;;;;5032784;28;20362;-52
2021/12/03 16:53:32;;;;;;;4.03;3.37;;;4.20;99.90;;;;;;5033475;28;20639;-51
2021/12/03 16:56:16;;;;;;;3.50;3.17;;;4.20;99.90;;;;;;5037138;28;20223;-51
2021/12/03 16:58:44;;;;;;;3.90;3.47;;;4.20;99.90;;;;;;5035335;28;20550;-51
2021/12/03 17:14:59;;;;;;;5.97;4.47;;;4.20;99.90;;;;;;5033231;28;20714;-52
2021/12/03 17:18:20;;;;;;;4.83;4.07;;;4.20;99.90;;;;;;5013082;28;20667;-52
2021/12/03 18:00:45;;;;;;;5.57;4.43;;;4.20;99.90;;;;;;5034126;28;20199;-52
2021/12/03 18:03:29;;;;;;;4.27;3.83;;;4.20;99.90;;;;;;5030481;28;20206;-51
2021/12/03 18:08:32;;;;;;;4.13;3.23;;;4.20;99.90;;;;;;5031378;28;20209;-52
2021/12/03 18:11:26;;;;;;;3.80;3.40;;;4.20;99.90;;;;;;5030560;28;20651;-53
2021/12/03 18:44:27;;;;;;;4.57;3.20;;;4.30;99.90;;;;;;5039935;28;20262;-52
2021/12/03 18:52:20;;;;;;;4.20;3.50;;;4.30;99.90;;;;;;5035649;28;20628;-52
2021/12/03 18:54:44;;;;;;;3.40;3.07;;;4.30;99.90;;;;;;5037033;28;20227;-50
2021/12/03 18:57:15;;;;;;;3.60;3.30;;;4.30;99.90;;;;;;5036226;28;20188;-55
2021/12/03 19:00:04;;;;;;;4.50;3.90;;;4.30;99.90;;;;;;5032830;28;20691;-51
2021/12/03 19:02:33;;;;;;;6.07;4.27;;;4.40;99.90;;;;;;5037797;28;20197;-52
2021/12/03 19:05:06;;;;;;;4.77;3.90;;;4.40;99.90;;;;;;5034747;28;20227;-52
2021/12/03 19:10:06;;;;;;;4.63;4.20;;;4.40;99.90;;;;;;5038628;28;20213;-53
2021/12/03 19:12:35;;;;;;;4.03;3.70;;;4.40;99.90;;;;;;5033859;28;20665;-52
2021/12/03 19:15:02;;;;;;;5.50;4.13;;;4.40;99.90;;;;;;5038856;28;20217;-50
2021/12/03 19:17:36;;;;;;;4.20;3.80;;;4.40;99.90;;;;;;5033495;28;20210;-52
2021/12/03 19:20:05;;;;;;;6.10;4.47;;;4.40;99.90;;;;;;5034896;28;20632;-52
2021/12/03 19:22:32;;;;;;;5.27;4.20;;;4.40;99.90;;;;;;5037894;28;20236;-53
2021/12/03 19:24:59;;;;;;;4.90;4.37;;;4.40;99.90;;;;;;5037947;28;20635;-51
2021/12/03 19:27:27;;;;;;;7.33;4.23;;;4.40;99.90;;;;;;5032308;28;20211;-51
2021/12/03 19:29:56;;;;;;;4.93;4.30;;;4.40;99.90;;;;;;5035794;28;21095;-51
2021/12/03 19:32:27;;;;;;;6.50;4.97;;;4.40;99.90;;;;;;5032596;28;20235;-52
2021/12/03 19:34:54;;;;;;;5.57;4.90;;;4.40;99.90;;;;;;5035933;28;20641;-52
2021/12/03 19:37:23;;;;;;;4.90;4.20;;;4.40;99.90;;;;;;5018857;28;20286;-52
2021/12/03 19:39:52;;;;;;;5.63;5.13;;;4.40;99.90;;;;;;5036718;28;20259;-50
2021/12/03 19:42:22;;;;;;;4.13;3.77;;;4.40;99.90;;;;;;5035065;28;20276;-53
2021/12/03 19:44:55;;;;;;;5.10;4.60;;;4.40;99.90;;;;;;5034336;28;20217;-52
2021/12/03 19:47:32;;;;;;;5.30;4.80;;;4.40;99.90;;;;;;5034740;28;20328;-51
2021/12/03 19:53:37;;;;;;;5.30;4.60;;;4.40;99.90;;;;;;5022449;28;20293;-52
2021/12/03 19:55:36;;;;;;;4.70;4.30;;;4.40;99.90;;;;;;5027293;28;20661;-51
2021/12/03 19:58:05;;;;;;;5.73;5.10;;;4.40;99.90;;;;;;5032880;28;20224;-51
2021/12/03 20:00:32;;;;;;;6.07;5.10;;;4.40;99.90;;;;;;5017479;28;20662;-50
2021/12/03 20:02:59;;;;;;;9.30;5.33;;;4.40;99.90;;;;;;5031989;28;20196;-53
2021/12/03 20:05:26;;;;;;;8.53;5.30;;;4.40;99.90;;;;;;5019127;28;20208;-52
2021/12/03 20:07:55;;;;;;;5.93;5.20;;;4.40;99.90;;;;;;5030768;28;22157;-52
2021/12/03 20:10:24;;;;;;;6.33;5.03;;;4.40;99.90;;;;;;5023258;28;20204;-51
2021/12/03 20:12:51;;;;;;;6.87;6.03;;;4.40;99.90;;;;;;5033993;28;20244;-52
2021/12/03 20:21:12;;;;;;;5.13;4.50;;;4.30;99.90;;;;;;5012112;28;20292;-51
2021/12/03 20:31:25;;;;;;;6.60;4.60;;;4.30;99.90;;;;;;4981264;28;20230;-51
2021/12/03 20:34:47;;;;;;;7.00;5.17;;;4.30;99.90;;;;;;5008544;28;20281;-51
2021/12/03 20:39:22;;;;;;;6.87;4.93;;;4.30;99.90;;;;;;5009801;28;20224;-52
2021/12/03 20:47:38;;;;;;;5.60;4.67;;;4.40;99.90;;;;;;5009133;28;20248;-51
2021/12/03 20:52:50;;;;;;;5.37;4.13;;;4.40;99.90;;;;;;5028106;28;20223;-51
2021/12/03 21:09:15;;;;;;;4.53;3.67;;;4.40;99.90;;;;;;5032271;28;20231;-50
2021/12/03 21:11:45;;;;;;;4.53;3.77;;;4.50;99.90;;;;;;5033923;28;20271;-50
2021/12/03 21:14:19;;;;;;;4.53;4.13;;;4.40;99.90;;;;;;5033135;28;20296;-50
2021/12/03 21:16:58;;;;;;;4.40;3.73;;;4.40;99.90;;;;;;5033296;28;20312;-52
2021/12/03 21:19:39;;;;;;;3.67;3.37;;;4.40;99.90;;;;;;5031874;28;21207;-52
2021/12/03 21:22:18;;;;;;;3.70;3.40;;;4.40;99.90;;;;;;5033519;28;20200;-51
2021/12/03 21:24:49;;;;;;;4.43;3.70;;;4.30;99.90;;;;;;5034611;28;20296;-51
2021/12/03 21:27:21;;;;;;;4.47;3.97;;;4.40;99.90;;;;;;5032798;28;20195;-51
2021/12/03 21:30:02;;;;;;;4.10;3.70;;;4.40;99.90;;;;;;5032732;28;20206;-50
2021/12/03 21:38:20;;;;;;;3.50;3.20;;;4.50;99.90;;;;;;5033074;28;20205;-51
2021/12/03 21:43:34;;;;;;;3.30;3.00;;;4.40;99.90;;;;;;5029641;28;20369;-52
2021/12/03 21:46:01;;;;;;;3.43;2.93;;;4.40;99.90;;;;;;5032416;28;20235;-51